createdAt,value
2022-09-16T00:01:30.526Z,53781.41
2022-09-16T00:03:59.350Z,53791.34
2022-09-16T00:06:29.841Z,53813.22
2022-09-16T00:09:01.092Z,53821.19
2022-09-16T00:11:34.502Z,53833.13
2022-09-16T00:14:02.906Z,53837.09
2022-09-16T00:16:31.356Z,53849.03
2022-09-16T00:19:02.016Z,53860.94
2022-09-16T00:21:31.556Z,53853.00
2022-09-16T00:24:00.478Z,53876.84
2022-09-16T00:26:31.051Z,53876.84
2022-09-16T00:28:59.597Z,53874.88
2022-09-16T00:31:28.158Z,53853.00
2022-09-16T00:33:56.581Z,53853.00
2022-09-16T00:36:25.005Z,53847.03
2022-09-16T00:38:55.023Z,53880.84
2022-09-16T00:41:25.442Z,53880.84
2022-09-16T00:43:58.350Z,53878.84
2022-09-16T00:46:33.724Z,53870.88
2022-09-16T00:49:07.054Z,53888.78
2022-09-16T00:51:35.829Z,53868.91
2022-09-16T00:54:10.040Z,53892.75
2022-09-16T00:56:41.980Z,53864.94
2022-09-16T00:59:16.673Z,53847.03
2022-09-16T01:01:45.786Z,53837.09
2022-09-16T01:04:21.371Z,53894.75
2022-09-16T01:06:50.700Z,53858.97
2022-09-16T01:09:20.759Z,53894.75
2022-09-16T01:11:49.317Z,53866.91
2022-09-16T01:14:34.751Z,53856.97
2022-09-16T01:17:10.004Z,53898.72
2022-09-16T01:20:15.526Z,53880.84
2022-09-16T01:23:03.462Z,53894.75
2022-09-16T01:25:43.043Z,53916.63
2022-09-16T01:28:46.980Z,53880.84
2022-09-16T01:31:22.525Z,53916.63
2022-09-16T01:34:00.919Z,53894.75
2022-09-16T01:36:41.902Z,53876.84
2022-09-16T01:39:20.665Z,53872.88
2022-09-16T01:42:02.795Z,53900.72
2022-09-16T01:44:48.289Z,53878.84
2022-09-16T01:47:25.368Z,53880.84
2022-09-16T01:50:02.123Z,53872.88
2022-09-16T01:52:40.377Z,53884.81
2022-09-16T01:55:13.562Z,53882.81
2022-09-16T01:57:50.110Z,53880.84
2022-09-16T02:00:19.202Z,53866.91
2022-09-16T02:02:53.231Z,53894.75
2022-09-16T02:05:28.261Z,53880.84
2022-09-16T02:08:02.589Z,53884.81
2022-09-16T02:10:33.959Z,53888.78
2022-09-16T02:13:15.641Z,53898.72
2022-09-16T02:15:48.847Z,53904.69
2022-09-16T02:18:24.065Z,53912.66
2022-09-16T02:20:56.105Z,53896.75
2022-09-16T02:23:28.402Z,53912.66
2022-09-16T02:25:57.632Z,53902.69
2022-09-16T02:28:31.679Z,53906.69
2022-09-16T02:31:03.543Z,53934.50
2022-09-16T02:33:38.390Z,53908.66
2022-09-16T02:36:09.404Z,53896.75
2022-09-16T02:38:43.164Z,53884.81
2022-09-16T02:41:14.957Z,53902.69
2022-09-16T02:43:44.331Z,53914.63
2022-09-16T02:46:20.533Z,53902.69
2022-09-16T02:48:58.764Z,53940.47
2022-09-16T02:51:34.906Z,53904.69
2022-09-16T02:54:11.255Z,53942.47
2022-09-16T02:56:42.564Z,53940.47
2022-09-16T02:59:13.996Z,53894.75
2022-09-16T03:01:44.914Z,53890.78
2022-09-16T03:04:16.674Z,53932.53
2022-09-16T03:06:45.210Z,53924.56
2022-09-16T03:09:15.987Z,53924.56
2022-09-16T03:11:59.475Z,53954.41
2022-09-16T03:14:47.556Z,53944.47
2022-09-16T03:17:32.350Z,53942.47
2022-09-16T03:20:11.078Z,53918.59
2022-09-16T03:22:50.339Z,53964.34
2022-09-16T03:25:33.604Z,53962.34
2022-09-16T03:28:11.537Z,53964.34
2022-09-16T03:30:49.856Z,53940.47
2022-09-16T03:33:25.527Z,53946.44
2022-09-16T03:36:00.333Z,53950.44
2022-09-16T03:38:29.748Z,53958.38
2022-09-16T03:40:59.309Z,53966.34
2022-09-16T03:43:27.785Z,53978.25
2022-09-16T03:45:56.305Z,53970.31
2022-09-16T03:48:24.978Z,53976.28
2022-09-16T03:50:53.355Z,53944.47
2022-09-16T03:53:23.293Z,53974.28
2022-09-16T03:55:52.123Z,53980.25
2022-09-16T03:58:20.660Z,54016.03
2022-09-16T04:00:51.890Z,54027.97
2022-09-16T04:03:20.448Z,54027.97
2022-09-16T04:05:53.948Z,54012.06
2022-09-16T04:08:24.499Z,53992.19
2022-09-16T04:10:56.655Z,54006.09
2022-09-16T04:13:25.294Z,54037.91
2022-09-16T04:15:53.845Z,54031.94
2022-09-16T04:18:22.296Z,54033.94
2022-09-16T04:20:50.764Z,54027.97
2022-09-16T04:23:19.161Z,54024.00
2022-09-16T04:25:55.563Z,54020.00
2022-09-16T04:28:24.456Z,54035.91
2022-09-16T04:30:53.241Z,53970.31
2022-09-16T04:33:21.564Z,53986.22
2022-09-16T04:35:49.944Z,53964.34
2022-09-16T04:38:18.440Z,53964.34
2022-09-16T04:40:46.942Z,53966.34
2022-09-16T04:43:16.732Z,53944.47
2022-09-16T04:45:45.221Z,53946.44
2022-09-16T04:48:13.885Z,53962.34
2022-09-16T04:50:42.661Z,53940.47
2022-09-16T04:53:11.073Z,53958.38
2022-09-16T04:55:39.464Z,53936.50
2022-09-16T04:58:08.105Z,53928.56
2022-09-16T05:00:37.921Z,53944.47
2022-09-16T05:03:06.920Z,53906.69
2022-09-16T05:05:36.099Z,53928.56
2022-09-16T05:08:04.560Z,53898.72
2022-09-16T05:10:33.381Z,53924.56
2022-09-16T05:13:01.625Z,53872.88
2022-09-16T05:15:30.090Z,53882.81
2022-09-16T05:17:59.863Z,53912.66
2022-09-16T05:20:28.381Z,53884.81
2022-09-16T05:22:56.738Z,53876.84
2022-09-16T05:25:25.102Z,53864.94
2022-09-16T05:27:53.393Z,53902.69
2022-09-16T05:30:25.900Z,53880.84
2022-09-16T05:32:55.281Z,53872.88
2022-09-16T05:35:25.142Z,53880.84
2022-09-16T05:37:53.400Z,53890.78
2022-09-16T05:40:23.173Z,53868.91
2022-09-16T05:42:51.651Z,53882.81
2022-09-16T05:45:25.698Z,53874.88
2022-09-16T05:47:56.007Z,53849.03
2022-09-16T05:50:25.761Z,53890.78
2022-09-16T05:52:54.162Z,53854.97
2022-09-16T05:55:22.643Z,53886.78
2022-09-16T05:57:51.015Z,53882.81
2022-09-16T06:00:19.763Z,53864.94
2022-09-16T06:02:49.302Z,53870.88
2022-09-16T06:05:18.076Z,53864.94
2022-09-16T06:07:47.842Z,53833.13
2022-09-16T06:10:16.479Z,53864.94
2022-09-16T06:12:45.030Z,53864.94
2022-09-16T06:15:13.450Z,53849.03
2022-09-16T06:17:41.828Z,53874.88
2022-09-16T06:20:14.147Z,53868.91
2022-09-16T06:22:42.652Z,53860.94
2022-09-16T06:25:12.365Z,53841.06
2022-09-16T06:27:41.227Z,53829.13
2022-09-16T06:30:10.528Z,53833.13
2022-09-16T06:32:38.995Z,53823.16
2022-09-16T06:35:08.125Z,53829.13
2022-09-16T06:37:36.545Z,53799.31
2022-09-16T06:40:05.388Z,53793.34
2022-09-16T06:42:37.696Z,53767.50
2022-09-16T06:45:07.236Z,53769.50
2022-09-16T06:47:35.890Z,53807.25
2022-09-16T06:50:05.679Z,53803.28
2022-09-16T06:52:34.342Z,53789.38
2022-09-16T06:55:02.867Z,53769.50
2022-09-16T06:57:32.407Z,53791.34
2022-09-16T07:00:02.382Z,53755.56
2022-09-16T07:02:31.334Z,53769.50
2022-09-16T07:05:02.117Z,53745.63
2022-09-16T07:07:34.110Z,53773.47
2022-09-16T07:10:02.670Z,53733.69
2022-09-16T07:12:31.162Z,53735.69
2022-09-16T07:15:01.098Z,53687.97
2022-09-16T07:17:30.252Z,53670.09
2022-09-16T07:19:58.995Z,53660.13
2022-09-16T07:22:27.520Z,53682.00
2022-09-16T07:24:56.519Z,53636.28
2022-09-16T07:27:25.279Z,53662.13
2022-09-16T07:29:54.221Z,53642.25
2022-09-16T07:32:24.376Z,53634.28
2022-09-16T07:34:53.991Z,53626.34
2022-09-16T07:37:22.684Z,53630.31
2022-09-16T07:39:51.209Z,53602.47
2022-09-16T07:42:20.202Z,53618.38
2022-09-16T07:44:48.841Z,53562.72
2022-09-16T07:47:21.939Z,53604.47
2022-09-16T07:49:56.068Z,53570.69
2022-09-16T07:52:29.372Z,53614.41
2022-09-16T07:54:57.920Z,53574.66
2022-09-16T07:57:26.396Z,53600.50
2022-09-16T07:59:54.823Z,53628.31
2022-09-16T08:02:23.893Z,53600.50
2022-09-16T08:04:53.799Z,53602.47
2022-09-16T08:07:22.406Z,53560.72
2022-09-16T08:09:51.314Z,53594.53
2022-09-16T08:12:20.773Z,53580.63
2022-09-16T08:14:49.248Z,53590.56
2022-09-16T08:17:17.826Z,53548.81
2022-09-16T08:19:46.150Z,53546.81
2022-09-16T08:22:15.885Z,53582.59
2022-09-16T08:24:45.277Z,53566.69
2022-09-16T08:27:13.907Z,53578.63
2022-09-16T08:29:42.616Z,53554.78
2022-09-16T08:32:11.739Z,53540.84
2022-09-16T08:34:41.080Z,53538.88
2022-09-16T08:37:09.702Z,53526.94
2022-09-16T08:39:39.904Z,53554.78
2022-09-16T08:42:33.867Z,53528.94
2022-09-16T08:45:14.407Z,53522.97
2022-09-16T08:47:55.127Z,53515.00
2022-09-16T08:50:27.958Z,53489.16
2022-09-16T08:53:00.581Z,53483.19
2022-09-16T08:55:34.737Z,53499.09
2022-09-16T08:58:06.232Z,53495.13
2022-09-16T09:00:35.502Z,53455.38
2022-09-16T09:03:16.188Z,53475.25
2022-09-16T09:05:51.366Z,53471.28
2022-09-16T09:08:39.309Z,53483.19
2022-09-16T09:11:16.714Z,53469.28
2022-09-16T09:14:07.106Z,53453.38
2022-09-16T09:16:42.798Z,53449.41
2022-09-16T09:19:28.205Z,53423.56
2022-09-16T09:22:07.117Z,53471.28
2022-09-16T09:25:10.443Z,53445.44
2022-09-16T09:27:49.738Z,53457.34
2022-09-16T09:30:22.444Z,53475.25
2022-09-16T09:33:34.232Z,53431.50
2022-09-16T09:36:24.658Z,53447.41
2022-09-16T09:39:17.549Z,53465.31
2022-09-16T09:41:51.179Z,53427.53
2022-09-16T09:44:35.897Z,53451.38
2022-09-16T09:47:09.979Z,53447.41
2022-09-16T09:49:44.470Z,53429.53
2022-09-16T09:52:21.115Z,53431.50
2022-09-16T09:54:51.475Z,53421.56
2022-09-16T09:57:28.495Z,53439.47
2022-09-16T10:00:09.579Z,53461.31
2022-09-16T10:02:44.965Z,53427.53
2022-09-16T10:05:25.199Z,53419.59
2022-09-16T10:07:57.015Z,53449.41
2022-09-16T10:10:27.956Z,53465.31
2022-09-16T10:12:58.590Z,53467.28
2022-09-16T10:15:30.835Z,53421.56
2022-09-16T10:18:03.379Z,53455.38
2022-09-16T10:20:36.126Z,53419.59
2022-09-16T10:23:08.087Z,53419.59
2022-09-16T10:25:36.519Z,53423.56
2022-09-16T10:28:08.123Z,53421.56
2022-09-16T10:30:48.546Z,53439.47
2022-09-16T10:33:24.273Z,53393.75
2022-09-16T10:35:57.973Z,53411.63
2022-09-16T10:38:35.201Z,53423.56
2022-09-16T10:41:08.962Z,53403.69
2022-09-16T10:43:40.648Z,53385.78
2022-09-16T10:46:16.797Z,53441.44
2022-09-16T10:48:45.424Z,53443.44
2022-09-16T10:51:23.868Z,53459.34
2022-09-16T10:53:57.047Z,53491.16
2022-09-16T10:56:29.553Z,53546.81
2022-09-16T10:59:06.882Z,53558.75
2022-09-16T11:01:48.443Z,53580.63
2022-09-16T11:04:54.557Z,53630.31
2022-09-16T11:07:37.892Z,53672.06
2022-09-16T11:10:23.732Z,53666.09
2022-09-16T11:13:16.777Z,53658.16
2022-09-16T11:16:01.567Z,53682.00
2022-09-16T11:18:44.047Z,53689.97
2022-09-16T11:21:32.640Z,53682.00
2022-09-16T11:24:16.339Z,53697.91
2022-09-16T11:26:53.920Z,53721.78
2022-09-16T11:29:42.689Z,53703.88
2022-09-16T11:32:17.390Z,53686.00
2022-09-16T11:35:03.978Z,53701.88
2022-09-16T11:37:40.571Z,53697.91
2022-09-16T11:40:20.668Z,53701.88
2022-09-16T11:43:00.480Z,53701.88
2022-09-16T11:45:43.760Z,53697.91
2022-09-16T11:48:27.947Z,53697.91
2022-09-16T11:51:06.219Z,53711.84
2022-09-16T11:53:55.675Z,53699.91
2022-09-16T11:56:32.217Z,53701.88
2022-09-16T11:59:06.255Z,53678.03
2022-09-16T12:01:40.903Z,53686.00
2022-09-16T12:04:16.390Z,53684.00
2022-09-16T12:06:53.624Z,53654.19
2022-09-16T12:09:29.214Z,53674.06
2022-09-16T12:12:07.402Z,53678.03
2022-09-16T12:14:40.147Z,53654.19
2022-09-16T12:17:15.335Z,53642.25
2022-09-16T12:19:48.881Z,53646.22
2022-09-16T12:22:22.116Z,53658.16
2022-09-16T12:24:57.860Z,53670.09
2022-09-16T12:27:44.739Z,53670.09
2022-09-16T12:30:17.239Z,53642.25
2022-09-16T12:33:02.438Z,53632.31
2022-09-16T12:35:35.650Z,53610.44
2022-09-16T12:38:06.701Z,53560.72
2022-09-16T12:40:45.548Z,53552.78
2022-09-16T12:43:42.737Z,53532.91
2022-09-16T12:46:43.602Z,53532.91
2022-09-16T12:49:39.319Z,53578.63
2022-09-16T12:52:26.930Z,53532.91
2022-09-16T12:55:25.065Z,53576.63
2022-09-16T12:58:11.056Z,53592.53
2022-09-16T13:00:45.269Z,53612.44
2022-09-16T13:03:19.719Z,53662.13
2022-09-16T13:05:52.205Z,53670.09
2022-09-16T13:08:24.382Z,53630.31
2022-09-16T13:11:29.256Z,53652.19
2022-09-16T13:13:51.441Z,53662.13
2022-09-16T13:16:31.075Z,53684.00
2022-09-16T13:19:31.041Z,53707.84
2022-09-16T13:22:02.600Z,53701.88
2022-09-16T13:24:37.353Z,53725.75
2022-09-16T13:27:26.002Z,53725.75
2022-09-16T13:30:07.580Z,53725.75
2022-09-16T13:32:43.180Z,53737.69
2022-09-16T13:35:25.958Z,53735.69
2022-09-16T13:37:55.823Z,53668.09
2022-09-16T13:40:26.640Z,53570.69
2022-09-16T13:43:15.209Z,53548.81
2022-09-16T13:45:46.754Z,53515.00
2022-09-16T13:48:18.709Z,53493.13
2022-09-16T13:50:55.226Z,53473.25
2022-09-16T13:53:30.100Z,53431.50
2022-09-16T13:56:06.950Z,53429.53
2022-09-16T13:58:56.179Z,53435.47
2022-09-16T14:01:56.101Z,53429.53
2022-09-16T14:04:41.809Z,53451.38
2022-09-16T14:07:25.208Z,53447.41
2022-09-16T14:10:01.914Z,53459.34
2022-09-16T14:12:39.280Z,53505.06
2022-09-16T14:15:10.200Z,53507.06
2022-09-16T14:17:44.159Z,53441.44
2022-09-16T14:20:17.398Z,53447.41
2022-09-16T14:22:46.834Z,53435.47
2022-09-16T14:25:30.253Z,53443.44
2022-09-16T14:28:17.950Z,53439.47
2022-09-16T14:30:51.070Z,53461.31
2022-09-16T14:33:24.691Z,53473.25
2022-09-16T14:35:56.807Z,53509.03
2022-09-16T14:38:45.490Z,53487.19
2022-09-16T14:41:23.817Z,53544.81
2022-09-16T14:43:53.855Z,53550.78
2022-09-16T14:46:24.342Z,53550.78
2022-09-16T14:48:52.740Z,53564.72
2022-09-16T14:51:25.038Z,53556.75
2022-09-16T14:54:13.877Z,53566.69
2022-09-16T14:56:42.501Z,53566.69
2022-09-16T14:59:14.089Z,53576.63
2022-09-16T15:01:44.278Z,53580.63
2022-09-16T15:04:19.690Z,53556.75
2022-09-16T15:06:54.163Z,53564.72
2022-09-16T15:09:32.579Z,53550.78
2022-09-16T15:12:02.608Z,53570.69
2022-09-16T15:14:31.141Z,53524.94
2022-09-16T15:17:03.689Z,53520.97
2022-09-16T15:19:36.406Z,53495.13
2022-09-16T15:22:09.593Z,53501.09
2022-09-16T15:24:42.071Z,53505.06
2022-09-16T15:27:11.382Z,53465.31
2022-09-16T15:29:53.516Z,53443.44
2022-09-16T15:32:44.465Z,53471.28
2022-09-16T15:35:20.882Z,53469.28
2022-09-16T15:37:49.766Z,53453.38
2022-09-16T15:40:25.417Z,53483.19
2022-09-16T15:43:12.843Z,53459.34
2022-09-16T15:45:41.745Z,53483.19
2022-09-16T15:48:17.250Z,53483.19
2022-09-16T15:50:50.518Z,53479.22
2022-09-16T15:53:23.833Z,53431.50
2022-09-16T15:55:58.160Z,53465.31
2022-09-16T15:58:41.136Z,53479.22
2022-09-16T16:01:14.966Z,53487.19
2022-09-16T16:03:57.214Z,53475.25
2022-09-16T16:06:49.890Z,53467.28
2022-09-16T16:09:33.059Z,53475.25
2022-09-16T16:12:03.146Z,53475.25
2022-09-16T16:14:33.083Z,53479.22
2022-09-16T16:17:18.824Z,53469.28
2022-09-16T16:19:51.083Z,53457.34
2022-09-16T16:22:20.734Z,53437.47
2022-09-16T16:24:49.439Z,53473.25
2022-09-16T16:27:18.040Z,53475.25
2022-09-16T16:29:46.435Z,53457.34
2022-09-16T16:32:16.892Z,53469.28
2022-09-16T16:34:50.242Z,53465.31
2022-09-16T16:37:44.890Z,53475.25
2022-09-16T16:40:12.086Z,53455.38
2022-09-16T16:42:43.149Z,53491.16
2022-09-16T16:45:12.654Z,53487.19
2022-09-16T16:47:41.291Z,53445.44
2022-09-16T16:50:10.795Z,53489.16
2022-09-16T16:52:40.839Z,53479.22
2022-09-16T16:55:10.591Z,53479.22
2022-09-16T16:57:39.174Z,53483.19
2022-09-16T17:00:09.163Z,53513.03
2022-09-16T17:02:37.664Z,53507.06
2022-09-16T17:05:06.959Z,53536.88
2022-09-16T17:07:35.295Z,53540.84
2022-09-16T17:10:07.678Z,53530.91
2022-09-16T17:12:36.409Z,53554.78
2022-09-16T17:15:05.229Z,53532.91
2022-09-16T17:17:33.683Z,53530.91
2022-09-16T17:20:02.227Z,53584.59
2022-09-16T17:22:31.383Z,53548.81
2022-09-16T17:24:59.933Z,53522.97
2022-09-16T17:27:29.832Z,53518.97
2022-09-16T17:30:01.166Z,53526.94
2022-09-16T17:32:30.156Z,53546.81
2022-09-16T17:34:58.856Z,53540.84
2022-09-16T17:37:27.430Z,53530.91
2022-09-16T17:39:56.141Z,53548.81
2022-09-16T17:42:24.636Z,53526.94
2022-09-16T17:44:54.485Z,53524.94
2022-09-16T17:47:22.864Z,53542.84
2022-09-16T17:49:53.037Z,53540.84
2022-09-16T17:52:21.994Z,53536.88
2022-09-16T17:54:50.424Z,53582.59
2022-09-16T17:57:19.273Z,53562.72
2022-09-16T17:59:47.717Z,53590.56
2022-09-16T18:02:17.425Z,53572.66
2022-09-16T18:04:47.964Z,53548.81
2022-09-16T18:07:16.656Z,53582.59
2022-09-16T18:09:45.109Z,53546.81
2022-09-16T18:12:13.697Z,53600.50
2022-09-16T18:14:42.210Z,53590.56
2022-09-16T18:17:10.696Z,53578.63
2022-09-16T18:19:40.634Z,53590.56
2022-09-16T18:22:08.993Z,53624.34
2022-09-16T18:24:37.768Z,53628.31
2022-09-16T18:27:06.674Z,53618.38
2022-09-16T18:29:35.455Z,53642.25
2022-09-16T18:32:06.344Z,53612.44
2022-09-16T18:34:34.932Z,53638.28
2022-09-16T18:37:04.918Z,53636.28
2022-09-16T18:39:33.363Z,53622.38
2022-09-16T18:42:01.951Z,53620.38
2022-09-16T18:44:30.402Z,53642.25
2022-09-16T18:46:58.865Z,53650.19
2022-09-16T18:49:29.111Z,53654.19
2022-09-16T18:51:57.956Z,53646.22
2022-09-16T18:54:29.411Z,53650.19
2022-09-16T18:56:59.122Z,53642.25
2022-09-16T18:59:29.282Z,53666.09
2022-09-16T19:01:59.966Z,53670.09
2022-09-16T19:04:30.505Z,53630.31
2022-09-16T19:07:06.102Z,53697.91
2022-09-16T19:09:37.623Z,53654.19
2022-09-16T19:12:07.089Z,53672.06
2022-09-16T19:14:36.138Z,53674.06
2022-09-16T19:17:05.293Z,53664.13
2022-09-16T19:19:34.322Z,53650.19
2022-09-16T19:22:05.755Z,53689.97
2022-09-16T19:24:36.203Z,53682.00
2022-09-16T19:27:04.997Z,53676.03
2022-09-16T19:29:33.422Z,53676.03
2022-09-16T19:32:02.259Z,53670.09
2022-09-16T19:34:31.245Z,53682.00
2022-09-16T19:37:00.235Z,53701.88
2022-09-16T19:39:28.791Z,53729.72
2022-09-16T19:42:03.239Z,53686.00
2022-09-16T19:44:32.237Z,53701.88
2022-09-16T19:47:01.497Z,53687.97
2022-09-16T19:49:30.559Z,53686.00
2022-09-16T19:51:59.168Z,53737.69
2022-09-16T19:54:27.861Z,53753.59
2022-09-16T19:56:56.485Z,53739.66
2022-09-16T19:59:26.843Z,53729.72
2022-09-16T20:01:55.368Z,53765.50
2022-09-16T20:04:24.873Z,53757.56
2022-09-16T20:06:53.310Z,53719.78
2022-09-16T20:09:21.827Z,53743.66
2022-09-16T20:11:50.765Z,53745.63
2022-09-16T20:14:21.999Z,53741.66
2022-09-16T20:16:52.672Z,53751.59
2022-09-16T20:19:22.161Z,53777.44
2022-09-16T20:21:50.715Z,53753.59
2022-09-16T20:24:21.364Z,53781.41
2022-09-16T20:26:51.244Z,53771.47
2022-09-16T20:29:21.403Z,53789.38
2022-09-16T20:31:53.775Z,53767.50
2022-09-16T20:34:24.472Z,53781.41
2022-09-16T20:36:53.133Z,53781.41
2022-09-16T20:39:22.401Z,53773.47
2022-09-16T20:41:52.761Z,53795.34
2022-09-16T20:44:21.612Z,53785.41
2022-09-16T20:46:51.799Z,53769.50
2022-09-16T20:49:23.135Z,53797.31
2022-09-16T20:51:52.540Z,53813.22
2022-09-16T20:54:20.921Z,53793.34
2022-09-16T20:56:50.143Z,53809.25
2022-09-16T20:59:20.470Z,53767.50
2022-09-16T21:01:50.123Z,53807.25
2022-09-16T21:04:21.564Z,53833.13
2022-09-16T21:06:50.193Z,53811.25
2022-09-16T21:09:19.554Z,53805.28
2022-09-16T21:11:48.402Z,53805.28
2022-09-16T21:14:18.399Z,53817.22
2022-09-16T21:16:47.252Z,53795.34
2022-09-16T21:19:16.760Z,53819.19
2022-09-16T21:21:47.832Z,53795.34
2022-09-16T21:24:17.113Z,53785.41
2022-09-16T21:26:46.964Z,53803.28
2022-09-16T21:29:17.968Z,53787.38
2022-09-16T21:31:46.841Z,53785.41
2022-09-16T21:34:17.946Z,53799.31
2022-09-16T21:36:48.845Z,53793.34
2022-09-16T21:39:18.815Z,53813.22
2022-09-16T21:41:49.133Z,53795.34
2022-09-16T21:44:18.097Z,53811.25
2022-09-16T21:46:50.974Z,53813.22
2022-09-16T21:49:22.892Z,53813.22
2022-09-16T21:51:54.181Z,53807.25
2022-09-16T21:54:26.737Z,53801.31
2022-09-16T21:56:55.539Z,53805.28
2022-09-16T21:59:24.881Z,53797.31
2022-09-16T22:01:53.848Z,53807.25
2022-09-16T22:04:24.407Z,53864.94
2022-09-16T22:06:55.648Z,53823.16
2022-09-16T22:09:24.280Z,53845.03
2022-09-16T22:11:52.949Z,53853.00
2022-09-16T22:14:21.800Z,53872.88
2022-09-16T22:16:50.513Z,53853.00
2022-09-16T22:19:20.428Z,53866.91
2022-09-16T22:21:51.119Z,53829.13
2022-09-16T22:24:21.525Z,53888.78
2022-09-16T22:26:51.431Z,53886.78
2022-09-16T22:29:20.098Z,53884.81
2022-09-16T22:31:49.142Z,53868.91
2022-09-16T22:34:18.147Z,53900.72
2022-09-16T22:36:46.605Z,53884.81
2022-09-16T22:39:17.972Z,53870.88
2022-09-16T22:41:48.396Z,53886.78
2022-09-16T22:44:16.916Z,53888.78
2022-09-16T22:46:49.560Z,53870.88
2022-09-16T22:49:18.296Z,53872.88
2022-09-16T22:51:46.895Z,53880.84
2022-09-16T22:54:16.199Z,53912.66
2022-09-16T22:56:45.755Z,53872.88
2022-09-16T22:59:18.754Z,53916.63
2022-09-16T23:01:47.539Z,53904.69
2022-09-16T23:04:16.611Z,53918.59
2022-09-16T23:06:45.185Z,53908.66
2022-09-16T23:09:14.363Z,53924.56
2022-09-16T23:11:43.104Z,53942.47
2022-09-16T23:14:15.094Z,53940.47
2022-09-16T23:16:44.989Z,53932.53
2022-09-16T23:19:13.562Z,53952.41
2022-09-16T23:21:42.465Z,53946.44
2022-09-16T23:24:15.880Z,53982.25
2022-09-16T23:26:45.039Z,53958.38
2022-09-16T23:29:15.324Z,53970.31
2022-09-16T23:31:45.821Z,53978.25
2022-09-16T23:34:17.259Z,53966.34
2022-09-16T23:36:46.442Z,53994.16
2022-09-16T23:39:16.672Z,53984.22
2022-09-16T23:41:45.778Z,54018.03
2022-09-16T23:44:16.165Z,53994.16
2022-09-16T23:46:46.173Z,54018.03
2022-09-16T23:49:17.168Z,54031.94
2022-09-16T23:51:45.743Z,54041.88
2022-09-16T23:54:14.166Z,54037.91
2022-09-16T23:56:43.538Z,54047.84
2022-09-16T23:59:12.161Z,54035.91
